sensor_id;sensor_type;location;lat;lon;timestamp;pressure;altitude;pressure_sealevel;temperature;humidity
63535;BME280;55128;50.230;18.944;2023-03-23T00:03:15;97994.97;;;9.30;68.80
63535;BME280;55128;50.230;18.944;2023-03-23T00:08:20;97993.56;;;9.41;68.14
63535;BME280;55128;50.230;18.944;2023-03-23T00:13:24;97994.81;;;9.33;68.69
63535;BME280;55128;50.230;18.944;2023-03-23T00:18:25;97987.59;;;9.20;69.37
63535;BME280;55128;50.230;18.944;2023-03-23T00:23:25;97989.50;;;8.99;71.12
63535;BME280;55128;50.230;18.944;2023-03-23T00:28:26;97989.56;;;8.97;70.54
63535;BME280;55128;50.230;18.944;2023-03-23T00:33:29;97991.75;;;8.89;70.47
63535;BME280;55128;50.230;18.944;2023-03-23T00:38:30;97982.84;;;8.72;70.49
63535;BME280;55128;50.230;18.944;2023-03-23T00:43:32;97979.72;;;8.64;71.35
63535;BME280;55128;50.230;18.944;2023-03-23T00:48:36;97976.66;;;8.54;71.00
63535;BME280;55128;50.230;18.944;2023-03-23T00:53:45;97981.31;;;8.49;71.61
63535;BME280;55128;50.230;18.944;2023-03-23T00:58:45;97975.94;;;8.32;72.07
63535;BME280;55128;50.230;18.944;2023-03-23T01:03:46;97976.81;;;8.13;72.53
63535;BME280;55128;50.230;18.944;2023-03-23T01:08:46;97963.16;;;8.23;72.79
63535;BME280;55128;50.230;18.944;2023-03-23T01:13:46;97959.38;;;8.09;72.91
63535;BME280;55128;50.230;18.944;2023-03-23T01:18:47;97957.00;;;8.03;72.32
63535;BME280;55128;50.230;18.944;2023-03-23T01:23:48;97961.78;;;7.95;73.36
63535;BME280;55128;50.230;18.944;2023-03-23T01:28:49;97964.50;;;7.93;73.52
63535;BME280;55128;50.230;18.944;2023-03-23T01:33:50;97966.22;;;7.75;73.58
63535;BME280;55128;50.230;18.944;2023-03-23T01:38:51;97956.44;;;7.77;74.06
63535;BME280;55128;50.230;18.944;2023-03-23T01:49:21;97953.44;;;7.66;74.69
63535;BME280;55128;50.230;18.944;2023-03-23T01:54:25;97949.06;;;7.65;74.45
63535;BME280;55128;50.230;18.944;2023-03-23T01:59:27;97947.41;;;7.63;75.14
63535;BME280;55128;50.230;18.944;2023-03-23T02:04:30;97940.34;;;7.63;75.23
63535;BME280;55128;50.230;18.944;2023-03-23T02:09:31;97927.25;;;7.60;75.19
63535;BME280;55128;50.230;18.944;2023-03-23T02:14:32;97924.16;;;7.71;74.77
63535;BME280;55128;50.230;18.944;2023-03-23T02:19:51;97927.78;;;7.68;75.10
63535;BME280;55128;50.230;18.944;2023-03-23T02:36:13;97921.03;;;7.82;74.94
63535;BME280;55128;50.230;18.944;2023-03-23T02:41:16;97920.66;;;7.70;75.97
63535;BME280;55128;50.230;18.944;2023-03-23T02:46:18;97913.38;;;7.75;75.78
63535;BME280;55128;50.230;18.944;2023-03-23T02:51:20;97905.66;;;7.71;75.09
63535;BME280;55128;50.230;18.944;2023-03-23T02:56:24;97916.28;;;7.69;76.18
63535;BME280;55128;50.230;18.944;2023-03-23T03:11:52;97903.59;;;7.77;76.84
63535;BME280;55128;50.230;18.944;2023-03-23T03:17:01;97899.59;;;7.88;76.39
63535;BME280;55128;50.230;18.944;2023-03-23T03:22:03;97898.94;;;7.83;76.35
63535;BME280;55128;50.230;18.944;2023-03-23T03:27:11;97896.66;;;7.75;77.05
63535;BME280;55128;50.230;18.944;2023-03-23T03:32:18;97894.47;;;7.85;76.41
63535;BME280;55128;50.230;18.944;2023-03-23T03:37:21;97886.25;;;7.72;76.62
63535;BME280;55128;50.230;18.944;2023-03-23T03:42:22;97885.22;;;7.74;77.54
63535;BME280;55128;50.230;18.944;2023-03-23T03:47:22;97888.97;;;7.70;77.54
63535;BME280;55128;50.230;18.944;2023-03-23T03:52:23;97899.34;;;7.54;77.86
63535;BME280;55128;50.230;18.944;2023-03-23T03:57:23;97901.38;;;7.68;78.29
63535;BME280;55128;50.230;18.944;2023-03-23T04:02:24;97906.50;;;7.71;77.82
63535;BME280;55128;50.230;18.944;2023-03-23T04:07:24;97900.06;;;7.77;77.97
63535;BME280;55128;50.230;18.944;2023-03-23T04:12:26;97895.28;;;8.04;76.69
63535;BME280;55128;50.230;18.944;2023-03-23T04:17:26;97890.78;;;8.06;76.92
63535;BME280;55128;50.230;18.944;2023-03-23T04:22:27;97887.31;;;8.42;75.40
63535;BME280;55128;50.230;18.944;2023-03-23T04:27:30;97883.00;;;8.59;75.15
63535;BME280;55128;50.230;18.944;2023-03-23T04:32:30;97877.78;;;8.74;74.04
63535;BME280;55128;50.230;18.944;2023-03-23T04:37:31;97871.88;;;8.87;73.39
63535;BME280;55128;50.230;18.944;2023-03-23T04:42:31;97882.81;;;9.14;72.74
63535;BME280;55128;50.230;18.944;2023-03-23T04:47:34;97885.59;;;9.28;71.87
63535;BME280;55128;50.230;18.944;2023-03-23T04:52:40;97895.97;;;9.33;71.78
63535;BME280;55128;50.230;18.944;2023-03-23T04:57:45;97895.84;;;9.52;71.12
63535;BME280;55128;50.230;18.944;2023-03-23T05:02:46;97899.53;;;9.65;70.16
63535;BME280;55128;50.230;18.944;2023-03-23T05:07:51;97902.38;;;9.78;70.10
63535;BME280;55128;50.230;18.944;2023-03-23T05:12:53;97892.03;;;9.89;69.60
63535;BME280;55128;50.230;18.944;2023-03-23T05:17:53;97894.69;;;10.05;69.39
63535;BME280;55128;50.230;18.944;2023-03-23T05:22:55;97893.94;;;10.35;68.45
63535;BME280;55128;50.230;18.944;2023-03-23T05:27:57;97885.19;;;11.24;66.05
63535;BME280;55128;50.230;18.944;2023-03-23T05:32:59;97895.75;;;11.83;64.28
63535;BME280;55128;50.230;18.944;2023-03-23T05:38:00;97894.75;;;12.54;62.39
63535;BME280;55128;50.230;18.944;2023-03-23T05:43:02;97898.63;;;13.29;59.86
63535;BME280;55128;50.230;18.944;2023-03-23T05:48:02;97888.13;;;13.53;58.36
63535;BME280;55128;50.230;18.944;2023-03-23T05:53:02;97899.84;;;13.76;57.20
63535;BME280;55128;50.230;18.944;2023-03-23T05:58:04;97906.38;;;14.22;56.68
63535;BME280;55128;50.230;18.944;2023-03-23T06:03:04;97906.03;;;14.50;55.76
63535;BME280;55128;50.230;18.944;2023-03-23T06:08:05;97906.88;;;14.64;53.18
63535;BME280;55128;50.230;18.944;2023-03-23T06:13:07;97897.31;;;14.11;54.38
63535;BME280;55128;50.230;18.944;2023-03-23T06:18:07;97892.22;;;14.08;55.13
63535;BME280;55128;50.230;18.944;2023-03-23T06:23:08;97896.31;;;14.25;54.20
63535;BME280;55128;50.230;18.944;2023-03-23T06:28:09;97895.94;;;14.06;54.11
63535;BME280;55128;50.230;18.944;2023-03-23T06:33:09;97904.41;;;14.36;53.99
63535;BME280;55128;50.230;18.944;2023-03-23T06:38:11;97896.78;;;14.19;52.86
63535;BME280;55128;50.230;18.944;2023-03-23T06:43:12;97904.16;;;14.15;54.08
63535;BME280;55128;50.230;18.944;2023-03-23T06:48:13;97902.41;;;14.27;53.24
63535;BME280;55128;50.230;18.944;2023-03-23T06:53:14;97912.63;;;14.33;53.71
63535;BME280;55128;50.230;18.944;2023-03-23T06:58:20;97911.06;;;14.55;52.79
63535;BME280;55128;50.230;18.944;2023-03-23T07:03:21;97907.66;;;14.53;52.36
63535;BME280;55128;50.230;18.944;2023-03-23T07:08:21;97903.94;;;14.43;52.16
63535;BME280;55128;50.230;18.944;2023-03-23T07:13:23;97916.81;;;14.62;52.18
63535;BME280;55128;50.230;18.944;2023-03-23T07:18:23;97916.72;;;14.63;52.26
63535;BME280;55128;50.230;18.944;2023-03-23T07:23:24;97923.31;;;14.70;52.08
63535;BME280;55128;50.230;18.944;2023-03-23T07:28:24;97923.03;;;14.62;52.08
63535;BME280;55128;50.230;18.944;2023-03-23T07:33:25;97922.84;;;14.76;51.99
63535;BME280;55128;50.230;18.944;2023-03-23T07:38:27;97932.44;;;15.03;51.77
63535;BME280;55128;50.230;18.944;2023-03-23T07:43:27;97935.94;;;15.28;51.05
63535;BME280;55128;50.230;18.944;2023-03-23T07:48:28;97935.56;;;15.32;51.24
63535;BME280;55128;50.230;18.944;2023-03-23T07:53:29;97938.25;;;15.32;51.21
63535;BME280;55128;50.230;18.944;2023-03-23T07:58:29;97935.19;;;15.84;49.69
63535;BME280;55128;50.230;18.944;2023-03-23T08:03:30;97931.56;;;15.85;49.29
63535;BME280;55128;50.230;18.944;2023-03-23T08:08:31;97928.38;;;17.23;47.90
63535;BME280;55128;50.230;18.944;2023-03-23T08:13:33;97929.59;;;22.16;37.49
63535;BME280;55128;50.230;18.944;2023-03-23T08:18:34;97936.56;;;25.12;33.35
63535;BME280;55128;50.230;18.944;2023-03-23T08:23:36;97942.16;;;26.18;29.21
63535;BME280;55128;50.230;18.944;2023-03-23T08:28:37;97934.13;;;25.49;30.91
63535;BME280;55128;50.230;18.944;2023-03-23T08:33:38;97931.44;;;28.40;26.13
63535;BME280;55128;50.230;18.944;2023-03-23T08:38:39;97940.91;;;26.65;25.78
63535;BME280;55128;50.230;18.944;2023-03-23T08:43:39;97935.41;;;24.83;29.57
63535;BME280;55128;50.230;18.944;2023-03-23T08:48:39;97939.38;;;27.14;27.25
63535;BME280;55128;50.230;18.944;2023-03-23T08:53:40;97939.09;;;30.67;22.87
63535;BME280;55128;50.230;18.944;2023-03-23T08:58:42;97930.84;;;27.60;25.97
63535;BME280;55128;50.230;18.944;2023-03-23T09:03:42;97932.88;;;30.91;21.81
63535;BME280;55128;50.230;18.944;2023-03-23T09:08:43;97938.59;;;34.29;18.75
63535;BME280;55128;50.230;18.944;2023-03-23T09:13:45;97941.53;;;33.26;19.31
63535;BME280;55128;50.230;18.944;2023-03-23T09:18:45;97941.16;;;34.19;17.77
63535;BME280;55128;50.230;18.944;2023-03-23T09:23:46;97934.84;;;32.48;19.14
63535;BME280;55128;50.230;18.944;2023-03-23T09:28:46;97940.31;;;33.22;18.51
63535;BME280;55128;50.230;18.944;2023-03-23T09:33:47;97939.97;;;32.45;19.38
63535;BME280;55128;50.230;18.944;2023-03-23T09:38:48;97934.25;;;31.46;19.51
63535;BME280;55128;50.230;18.944;2023-03-23T09:49:03;97934.78;;;31.93;19.92
63535;BME280;55128;50.230;18.944;2023-03-23T09:54:27;97928.91;;;32.51;18.56
63535;BME280;55128;50.230;18.944;2023-03-23T10:04:44;97911.56;;;31.00;19.80
63535;BME280;55128;50.230;18.944;2023-03-23T10:09:59;97903.84;;;27.65;22.89
63535;BME280;55128;50.230;18.944;2023-03-23T10:15:25;97899.47;;;27.06;23.41
63535;BME280;55128;50.230;18.944;2023-03-23T10:20:41;97891.16;;;25.82;24.48
63535;BME280;55128;50.230;18.944;2023-03-23T10:30:57;97872.22;;;25.74;26.23
63535;BME280;55128;50.230;18.944;2023-03-23T10:41:05;97860.31;;;22.57;28.35
63535;BME280;55128;50.230;18.944;2023-03-23T10:51:21;97879.03;;;21.73;30.40
63535;BME280;55128;50.230;18.944;2023-03-23T10:56:28;97887.00;;;21.13;31.72
63535;BME280;55128;50.230;18.944;2023-03-23T11:01:32;97882.63;;;20.48;32.95
63535;BME280;55128;50.230;18.944;2023-03-23T11:06:33;97892.31;;;20.41;33.00
63535;BME280;55128;50.230;18.944;2023-03-23T11:11:42;97890.47;;;20.14;33.47
63535;BME280;55128;50.230;18.944;2023-03-23T11:16:45;97887.38;;;19.71;34.21
63535;BME280;55128;50.230;18.944;2023-03-23T11:21:54;97878.34;;;19.53;35.19
63535;BME280;55128;50.230;18.944;2023-03-23T11:26:57;97870.50;;;19.69;34.84
63535;BME280;55128;50.230;18.944;2023-03-23T11:32:12;97872.53;;;19.48;35.19
63535;BME280;55128;50.230;18.944;2023-03-23T11:37:38;97868.25;;;19.65;35.70
63535;BME280;55128;50.230;18.944;2023-03-23T11:48:33;97874.13;;;19.50;35.82
63535;BME280;55128;50.230;18.944;2023-03-23T11:58:58;97877.56;;;19.70;35.60
63535;BME280;55128;50.230;18.944;2023-03-23T12:19:47;97852.66;;;20.06;35.19
63535;BME280;55128;50.230;18.944;2023-03-23T12:46:25;97850.09;;;20.32;35.79
63535;BME280;55128;50.230;18.944;2023-03-23T12:51:42;97854.16;;;20.18;35.68
63535;BME280;55128;50.230;18.944;2023-03-23T12:57:26;97850.00;;;19.96;36.72
63535;BME280;55128;50.230;18.944;2023-03-23T13:02:44;97858.69;;;19.90;36.25
63535;BME280;55128;50.230;18.944;2023-03-23T13:08:02;97860.28;;;19.83;36.27
63535;BME280;55128;50.230;18.944;2023-03-23T13:13:10;97850.81;;;19.59;37.00
63535;BME280;55128;50.230;18.944;2023-03-23T13:23:38;97847.09;;;19.79;36.30
63535;BME280;55128;50.230;18.944;2023-03-23T13:28:59;97836.81;;;19.93;36.21
63535;BME280;55128;50.230;18.944;2023-03-23T13:39:28;97814.63;;;20.09;36.07
63535;BME280;55128;50.230;18.944;2023-03-23T13:49:58;97804.22;;;19.96;35.89
63535;BME280;55128;50.230;18.944;2023-03-23T13:55:19;97802.25;;;20.16;35.85
63535;BME280;55128;50.230;18.944;2023-03-23T14:05:43;97801.16;;;20.09;35.89
63535;BME280;55128;50.230;18.944;2023-03-23T14:10:50;97806.63;;;20.17;35.58
63535;BME280;55128;50.230;18.944;2023-03-23T14:16:01;97805.69;;;20.08;35.74
63535;BME280;55128;50.230;18.944;2023-03-23T14:21:14;97808.22;;;19.92;36.01
63535;BME280;55128;50.230;18.944;2023-03-23T14:26:20;97809.94;;;19.83;35.76
63535;BME280;55128;50.230;18.944;2023-03-23T14:31:24;97803.31;;;19.68;36.33
63535;BME280;55128;50.230;18.944;2023-03-23T14:36:30;97795.91;;;19.79;36.56
63535;BME280;55128;50.230;18.944;2023-03-23T14:41:31;97799.03;;;19.85;35.50
63535;BME280;55128;50.230;18.944;2023-03-23T14:46:32;97797.22;;;19.75;35.54
63535;BME280;55128;50.230;18.944;2023-03-23T14:51:32;97798.94;;;19.76;35.69
63535;BME280;55128;50.230;18.944;2023-03-23T14:56:35;97797.38;;;19.74;35.95
63535;BME280;55128;50.230;18.944;2023-03-23T15:01:37;97802.13;;;19.52;36.64
63535;BME280;55128;50.230;18.944;2023-03-23T15:06:40;97800.16;;;19.35;37.15
63535;BME280;55128;50.230;18.944;2023-03-23T15:11:43;97803.38;;;19.58;36.90
63535;BME280;55128;50.230;18.944;2023-03-23T15:16:47;97796.09;;;19.31;37.50
63535;BME280;55128;50.230;18.944;2023-03-23T15:21:50;97803.41;;;19.38;37.47
63535;BME280;55128;50.230;18.944;2023-03-23T15:26:51;97796.22;;;19.29;37.46
63535;BME280;55128;50.230;18.944;2023-03-23T15:31:55;97791.59;;;19.12;37.79
63535;BME280;55128;50.230;18.944;2023-03-23T15:37:04;97777.72;;;19.16;37.81
63535;BME280;55128;50.230;18.944;2023-03-23T15:42:05;97789.59;;;19.14;37.77
63535;BME280;55128;50.230;18.944;2023-03-23T15:47:19;97781.00;;;19.00;37.82
63535;BME280;55128;50.230;18.944;2023-03-23T15:52:20;97784.81;;;19.08;37.52
63535;BME280;55128;50.230;18.944;2023-03-23T15:57:21;97799.56;;;19.03;37.61
63535;BME280;55128;50.230;18.944;2023-03-23T16:02:22;97809.31;;;18.65;38.75
63535;BME280;55128;50.230;18.944;2023-03-23T16:07:24;97800.13;;;18.58;39.75
63535;BME280;55128;50.230;18.944;2023-03-23T16:12:25;97817.66;;;18.43;41.08
63535;BME280;55128;50.230;18.944;2023-03-23T16:17:26;97816.09;;;18.31;41.62
63535;BME280;55128;50.230;18.944;2023-03-23T16:22:26;97814.97;;;18.43;41.79
63535;BME280;55128;50.230;18.944;2023-03-23T16:27:26;97820.91;;;18.37;42.35
63535;BME280;55128;50.230;18.944;2023-03-23T16:32:26;97824.56;;;18.26;43.52
63535;BME280;55128;50.230;18.944;2023-03-23T16:37:28;97826.97;;;18.29;43.45
63535;BME280;55128;50.230;18.944;2023-03-23T16:42:32;97837.72;;;18.19;44.48
63535;BME280;55128;50.230;18.944;2023-03-23T16:47:32;97834.25;;;17.98;45.46
63535;BME280;55128;50.230;18.944;2023-03-23T16:52:33;97830.00;;;17.85;44.93
63535;BME280;55128;50.230;18.944;2023-03-23T16:57:34;97819.66;;;17.60;45.70
63535;BME280;55128;50.230;18.944;2023-03-23T17:02:37;97825.00;;;17.50;44.39
63535;BME280;55128;50.230;18.944;2023-03-23T17:07:40;97824.09;;;17.40;45.90
63535;BME280;55128;50.230;18.944;2023-03-23T17:12:41;97828.38;;;17.42;45.86
63535;BME280;55128;50.230;18.944;2023-03-23T17:17:42;97832.31;;;17.38;46.74
63535;BME280;55128;50.230;18.944;2023-03-23T17:22:42;97832.22;;;17.28;46.45
63535;BME280;55128;50.230;18.944;2023-03-23T17:27:43;97824.53;;;17.14;47.10
63535;BME280;55128;50.230;18.944;2023-03-23T17:32:43;97837.88;;;17.04;48.07
63535;BME280;55128;50.230;18.944;2023-03-23T17:37:43;97846.88;;;16.82;49.92
63535;BME280;55128;50.230;18.944;2023-03-23T17:42:44;97843.88;;;16.64;49.41
63535;BME280;55128;50.230;18.944;2023-03-23T17:47:44;97819.00;;;16.41;49.55
63535;BME280;55128;50.230;18.944;2023-03-23T17:52:45;97831.63;;;16.18;49.43
63535;BME280;55128;50.230;18.944;2023-03-23T17:57:45;97838.81;;;16.06;49.75
63535;BME280;55128;50.230;18.944;2023-03-23T18:02:45;97840.97;;;16.24;48.01
63535;BME280;55128;50.230;18.944;2023-03-23T18:07:46;97851.56;;;16.14;49.12
63535;BME280;55128;50.230;18.944;2023-03-23T18:12:48;97853.28;;;16.15;49.53
63535;BME280;55128;50.230;18.944;2023-03-23T18:17:50;97875.69;;;15.91;50.35
63535;BME280;55128;50.230;18.944;2023-03-23T18:22:51;97875.69;;;16.03;49.61
63535;BME280;55128;50.230;18.944;2023-03-23T18:27:51;97875.34;;;16.07;49.86
63535;BME280;55128;50.230;18.944;2023-03-23T18:32:51;97877.16;;;15.62;53.24
63535;BME280;55128;50.230;18.944;2023-03-23T18:37:52;97886.13;;;15.49;52.74
63535;BME280;55128;50.230;18.944;2023-03-23T18:42:52;97881.63;;;15.61;52.89
63535;BME280;55128;50.230;18.944;2023-03-23T18:47:53;97874.22;;;15.53;52.85
63535;BME280;55128;50.230;18.944;2023-03-23T18:52:53;97874.94;;;15.44;53.67
63535;BME280;55128;50.230;18.944;2023-03-23T18:57:53;97872.03;;;15.59;53.01
63535;BME280;55128;50.230;18.944;2023-03-23T19:02:54;97876.28;;;15.61;51.88
63535;BME280;55128;50.230;18.944;2023-03-23T19:07:55;97869.22;;;15.49;52.32
63535;BME280;55128;50.230;18.944;2023-03-23T19:12:55;97873.97;;;15.45;51.36
63535;BME280;55128;50.230;18.944;2023-03-23T19:17:56;97869.13;;;15.50;51.30
63535;BME280;55128;50.230;18.944;2023-03-23T19:22:56;97858.03;;;15.55;50.79
63535;BME280;55128;50.230;18.944;2023-03-23T19:27:57;97853.91;;;15.51;50.90
63535;BME280;55128;50.230;18.944;2023-03-23T19:32:57;97863.78;;;15.62;50.69
63535;BME280;55128;50.230;18.944;2023-03-23T19:37:57;97862.81;;;15.74;49.84
63535;BME280;55128;50.230;18.944;2023-03-23T19:42:58;97869.78;;;15.77;49.71
63535;BME280;55128;50.230;18.944;2023-03-23T19:47:58;97874.13;;;15.89;49.19
63535;BME280;55128;50.230;18.944;2023-03-23T19:52:59;97878.53;;;15.90;49.10
63535;BME280;55128;50.230;18.944;2023-03-23T19:57:59;97875.34;;;15.96;49.11
63535;BME280;55128;50.230;18.944;2023-03-23T20:03:00;97880.47;;;15.99;48.98
63535;BME280;55128;50.230;18.944;2023-03-23T20:08:01;97887.50;;;16.00;49.33
63535;BME280;55128;50.230;18.944;2023-03-23T20:13:03;97899.56;;;16.06;48.97
63535;BME280;55128;50.230;18.944;2023-03-23T20:18:04;97907.09;;;16.12;48.53
63535;BME280;55128;50.230;18.944;2023-03-23T20:23:06;97916.72;;;16.15;48.20
63535;BME280;55128;50.230;18.944;2023-03-23T20:28:07;97924.63;;;16.16;48.40
63535;BME280;55128;50.230;18.944;2023-03-23T20:33:08;97924.38;;;16.19;48.32
63535;BME280;55128;50.230;18.944;2023-03-23T20:38:09;97931.91;;;16.14;48.28
63535;BME280;55128;50.230;18.944;2023-03-23T20:43:10;97931.06;;;16.13;48.45
63535;BME280;55128;50.230;18.944;2023-03-23T20:48:12;97928.16;;;16.17;48.59
63535;BME280;55128;50.230;18.944;2023-03-23T20:53:13;97921.06;;;16.16;48.73
63535;BME280;55128;50.230;18.944;2023-03-23T20:58:13;97919.50;;;16.13;48.74
63535;BME280;55128;50.230;18.944;2023-03-23T21:03:15;97914.88;;;16.04;48.86
63535;BME280;55128;50.230;18.944;2023-03-23T21:08:16;97917.81;;;15.89;49.14
63535;BME280;55128;50.230;18.944;2023-03-23T21:13:17;97915.84;;;15.91;49.99
63535;BME280;55128;50.230;18.944;2023-03-23T21:18:18;97911.72;;;15.76;49.56
63535;BME280;55128;50.230;18.944;2023-03-23T21:23:18;97916.72;;;15.81;49.73
63535;BME280;55128;50.230;18.944;2023-03-23T21:28:19;97917.81;;;15.89;49.34
63535;BME280;55128;50.230;18.944;2023-03-23T21:33:19;97925.84;;;15.89;49.41
63535;BME280;55128;50.230;18.944;2023-03-23T21:38:21;97924.38;;;15.97;49.39
63535;BME280;55128;50.230;18.944;2023-03-23T21:43:25;97927.78;;;15.99;49.91
63535;BME280;55128;50.230;18.944;2023-03-23T21:48:26;97929.00;;;15.94;49.81
63535;BME280;55128;50.230;18.944;2023-03-23T21:53:26;97931.44;;;15.86;50.03
63535;BME280;55128;50.230;18.944;2023-03-23T21:58:30;97927.78;;;15.87;49.67
63535;BME280;55128;50.230;18.944;2023-03-23T22:03:31;97927.78;;;15.87;49.79
63535;BME280;55128;50.230;18.944;2023-03-23T22:08:32;97927.16;;;15.84;50.01
63535;BME280;55128;50.230;18.944;2023-03-23T22:13:34;97924.38;;;15.85;50.09
63535;BME280;55128;50.230;18.944;2023-03-23T22:18:35;97922.44;;;15.87;50.03
63535;BME280;55128;50.230;18.944;2023-03-23T22:23:37;97928.78;;;15.86;50.42
63535;BME280;55128;50.230;18.944;2023-03-23T22:28:39;97935.81;;;15.87;50.31
63535;BME280;55128;50.230;18.944;2023-03-23T22:33:39;97925.59;;;15.81;50.15
63535;BME280;55128;50.230;18.944;2023-03-23T22:38:42;97927.00;;;15.63;51.53
63535;BME280;55128;50.230;18.944;2023-03-23T22:43:43;97915.44;;;15.51;51.08
63535;BME280;55128;50.230;18.944;2023-03-23T22:48:44;97922.72;;;15.38;51.87
63535;BME280;55128;50.230;18.944;2023-03-23T22:53:45;97925.09;;;15.29;52.29
63535;BME280;55128;50.230;18.944;2023-03-23T22:58:46;97922.31;;;15.31;52.12
63535;BME280;55128;50.230;18.944;2023-03-23T23:03:47;97921.47;;;15.30;51.88
63535;BME280;55128;50.230;18.944;2023-03-23T23:08:48;97923.56;;;15.38;51.63
63535;BME280;55128;50.230;18.944;2023-03-23T23:13:49;97928.69;;;15.52;51.58
63535;BME280;55128;50.230;18.944;2023-03-23T23:18:49;97925.63;;;15.46;51.86
63535;BME280;55128;50.230;18.944;2023-03-23T23:23:51;97923.97;;;15.56;51.41
63535;BME280;55128;50.230;18.944;2023-03-23T23:28:52;97935.72;;;15.42;52.21
63535;BME280;55128;50.230;18.944;2023-03-23T23:33:55;97922.34;;;15.42;52.09
63535;BME280;55128;50.230;18.944;2023-03-23T23:38:56;97926.88;;;15.53;51.97
63535;BME280;55128;50.230;18.944;2023-03-23T23:43:57;97930.03;;;15.47;52.08
63535;BME280;55128;50.230;18.944;2023-03-23T23:48:59;97932.34;;;15.51;51.98
63535;BME280;55128;50.230;18.944;2023-03-23T23:54:00;97928.44;;;15.55;51.87
63535;BME280;55128;50.230;18.944;2023-03-23T23:59:00;97921.84;;;15.48;51.83
